Flight Track Log - Related Links

Times and Time Zones

All times are in EDT time to prevent confusion due to time zone crossing. See the N53FP flight status page for this flight to view local times or setup timezone preferences in your user account.

Time Position Orientation Groundspeed Altitude Reporting Facility
EDT Latitude Longitude Course Direction KTS MPH feet Rate Location/Type
Tue 02:50:35 PM 42.3261 -85.5636 307° West 225 259 4,700  Level Chicago Center
Tue 02:51:37 PM 42.3631 -85.6350 305° West 231 266 6,600 2,081 Climbing Chicago Center
Tue 02:52:39 PM 42.4006 -85.7139 303° West 243 280 9,000 2,323 Climbing Chicago Center
Tue 02:53:41 PM 42.4367 -85.7908 302° West 243 280 11,400 2,129 Climbing Chicago Center
Tue 02:54:43 PM 42.4794 -85.8553 312° West 237 273 13,400 1,728 Climbing Chicago Center
Tue 02:55:00 PM 42.4986 -86.1028 307° West  Level FlightAware Approximate
Tue 02:55:46 PM 42.5333 -85.9178 319° Northwest 255 293 15,000  Level Chicago Center
Tue 02:56:48 PM 42.5806 -86.0136 304° West 255 293 17,200 1,887 Climbing Chicago Center
Tue 02:57:50 PM 42.6203 -86.0983 303° West 263 303 18,900 1,694 Climbing Chicago Center
Tue 02:58:52 PM 42.6578 -86.1867 300° West 267 307 20,700 1,694 Climbing Chicago Center
Tue 02:59:54 PM 42.6972 -86.2739 302° West 270 311 22,400 1,403 Climbing Chicago Center
Tue 03:00:56 PM 42.7397 -86.3592 304° West 271 312 23,600 1,113 Climbing Chicago Center
Tue 03:01:58 PM 42.8058 -86.4275 323° Northwest 299 344 24,700 1,113 Climbing Chicago Center
Tue 03:03:00 PM 42.8714 -86.4964 322° Northwest 297 342 25,900 1,210 Climbing Chicago Center
Tue 03:04:02 PM 42.9256 -86.6056 304° West 289 333 27,200 1,113 Climbing Chicago Center
Tue 03:05:04 PM 42.9672 -86.7017 301° West 292 336 28,200 968 Climbing Chicago Center
Tue 03:06:06 PM 43.0092 -86.7978 301° West 294 338 29,200 864 Climbing Chicago Center
Tue 03:07:09 PM 43.0511 -86.8978 300° West 301 346 30,000 768 Climbing Chicago Center
Tue 03:08:11 PM 43.0947 -86.9958 301° West 302 348 30,800 774 Climbing Chicago Center
Tue 03:09:13 PM 43.1378 -87.0969 300° West 307 353 31,600 871 Climbing Chicago Center
Tue 03:10:15 PM 43.1900 -87.2172 301° West 306 352 32,600 823 Climbing Chicago Center
Tue 03:11:17 PM 43.2319 -87.3192 299° West 307 353 33,300 581 Climbing Chicago Center
Tue 03:12:19 PM 43.2778 -87.4239 301° West 307 353 33,800 339 Climbing Chicago Center
Tue 03:13:21 PM 43.3544 -87.5008 324° Northwest 343 395 34,000 97 Climbing Chicago Center
Tue 03:14:23 PM 43.4294 -87.5817 322° Northwest 345 397 34,000  Level Chicago Center
Tue 03:15:25 PM 43.5075 -87.6681 321° Northwest 357 411 34,000  Level Chicago Center
Tue 03:16:27 PM 43.5997 -87.7700 321° Northwest 366 421 34,000  Level Chicago Center
Tue 03:17:29 PM 43.6783 -87.8578 321° Northwest 365 420 34,000  Level Chicago Center
Tue 03:18:31 PM 43.7569 -87.9458 321° Northwest 366 421 34,000  Level Chicago Center
Tue 03:19:33 PM 43.8358 -88.0347 321° Northwest 366 421 34,000  Level Chicago Center
Tue 03:20:35 PM 43.9261 -88.1364 321° Northwest 362 417 34,000  Level Chicago Center
Tue 03:21:38 PM 44.0042 -88.2256 321° Northwest 364 419 34,000  Level Chicago Center
Tue 03:22:40 PM 44.0806 -88.3133 320° Northwest 359 413 34,000  Level Chicago Center
Tue 03:23:42 PM 44.1575 -88.4008 321° Northwest 358 412 34,000  Level Chicago Center
Tue 03:24:44 PM 44.2342 -88.4875 321° Northwest 356 410 34,000  Level Chicago Center
Tue 03:25:20 PM 44.2714 -88.5300 321° Northwest 354 407 34,000  Level Minneapolis Center
Tue 03:26:23 PM 44.3597 -88.6311 321° Northwest 353 406 34,000  Level Minneapolis Center
Tue 03:27:24 PM 44.4353 -88.7214 320° Northwest 357 411 34,000  Level Minneapolis Center
Tue 03:28:26 PM 44.5233 -88.8222 321° Northwest 352 405 34,000  Level Minneapolis Center
Tue 03:29:28 PM 44.5767 -88.9350 304° West 352 405 34,000  Level Minneapolis Center
Tue 03:30:30 PM 44.5925 -89.0733 279° West 358 412 34,000  Level Minneapolis Center
Tue 03:31:32 PM 44.6117 -89.2081 281° West 355 409 34,000 -242 Level Minneapolis Center
Tue 03:32:34 PM 44.6283 -89.3472 280° West 359 413 33,500 -726 Descending Minneapolis Center
Tue 03:33:36 PM 44.6467 -89.4906 280° West 367 422 32,500 -2,129 Descending Minneapolis Center
Tue 03:34:38 PM 44.6661 -89.6558 279° West 369 425 29,100 -3,024 Descending Minneapolis Center
Tue 03:35:39 PM 44.6828 -89.8008 279° West 373 429 26,300 -2,780 Descending Minneapolis Center
Tue 03:36:41 PM 44.6986 -89.9425 279° West 372 428 23,400 -2,806 Descending Minneapolis Center
Tue 03:37:43 PM 44.7158 -90.0789 280° West 361 415 20,500 -2,419 Descending Minneapolis Center
Tue 03:38:45 PM 44.7317 -90.2319 278° West 360 414 18,400 -1,694 Descending Minneapolis Center
Tue 03:39:47 PM 44.7467 -90.3736 279° West 352 405 17,000 -1,403 Descending Minneapolis Center
Tue 03:40:49 PM 44.7619 -90.5117 279° West 344 396 15,500 -1,452 Descending Minneapolis Center
Tue 03:41:51 PM 44.7778 -90.6450 280° West 336 387 14,000 -1,597 Descending Minneapolis Center
Tue 03:42:53 PM 44.7925 -90.7728 279° West 334 384 12,200 -1,839 Descending Minneapolis Center
Tue 03:43:55 PM 44.8047 -90.8969 278° West 326 375 10,200 -2,049 Descending Minneapolis Center
Tue 03:44:56 PM 44.8164 -91.0203 278° West 303 349 8,000 -1,822 Descending Minneapolis Center
Tue 03:46:10 PM 44.8278 -91.1339 278° West 284 327 6,100 -1,577 Descending Minneapolis Center
Tue 03:47:13 PM 44.8397 -91.2533 278° West 260 299 4,400 -960 Descending Minneapolis Center
Tue 03:48:15 PM 44.8464 -91.3444 276° West 258 297 4,100 -290 Descending Minneapolis Center
Tue 03:50:00 PM 44.8500 -91.4833 270° West  Level FlightAware Approximate
Tue 03:57:00 PM 44.8658 -91.4843 270° West  Level Estimated
Tue 03:58:00 PM 44.8658 -91.4843 270° West  Level Estimated
Tue 03:59:00 PM 44.8658 -91.4843 270° West  Level Estimated
Tue 04:00:00 PM 44.8658 -91.4843 270° West  Level Estimated
Tue 04:01:00 PM 44.8658 -91.4843 270° West  Level Estimated
Tue 04:02:00 PM 44.8658 -91.4843 270° West  Level Estimated
Tue 04:03:00 PM 44.8658 -91.4843 270° West  Level Estimated
Tue 04:04:00 PM 44.8658 -91.4843 270° West  Level Estimated
Tue 04:05:00 PM 44.8658 -91.4843 270° West  Level Estimated

Login

Don't have an account? Register now (free) for customized features, flight alerts, and more!